SWA1035 KTPA-KMDW
Flight info
| Callsign | SWA1035 |
|---|---|
| Flight time | N/A |
| Altitude | 36000 |
| Route | ENDED2 LACEN BRUTS Q118 THRSR Q79 IIU DROSE FISSK7 |
| Aircraft | B738/M-SDE2E3FGHIRWXY/LB1 |
Departure
| Time | 2026-04-30 22:45 |
|---|---|
| Airport | Tampa International Airport (KTPA) |
Arrival
| Time | N/A |
|---|---|
| Airport | Chicago Midway International Airport (KMDW) |
| Time | Latitude | Longitude | Altitude | Speed | Heading |
|---|---|---|---|---|---|
| 2026-04-30 22:08 | 27.98214 | -82.53120 | 25 ft | 0 kts | 271° |
| 2026-04-30 22:36 | 27.98214 | -82.53101 | 25 ft | 2 kts | 270° |
| 2026-04-30 22:36 | 27.98214 | -82.53084 | 25 ft | 2 kts | 271° |
| 2026-04-30 22:37 | 27.98218 | -82.53046 | 25 ft | 1 kts | 204° |
| 2026-04-30 22:37 | 27.98224 | -82.53045 | 25 ft | 1 kts | 172° |
| 2026-04-30 22:37 | 27.98229 | -82.53045 | 25 ft | 0 kts | 181° |
| 2026-04-30 22:41 | 27.98227 | -82.53045 | 25 ft | 2 kts | 181° |
| 2026-04-30 22:41 | 27.98119 | -82.53018 | 25 ft | 8 kts | 116° |
| 2026-04-30 22:42 | 27.98339 | -82.52958 | 25 ft | 13 kts | 0° |
| 2026-04-30 22:43 | 27.98555 | -82.52953 | 25 ft | 15 kts | 1° |
| 2026-04-30 22:43 | 27.98703 | -82.52898 | 26 ft | 7 kts | 85° |
| 2026-04-30 22:44 | 27.98688 | -82.52824 | 28 ft | 1 kts | 157° |
| 2026-04-30 22:45 | 27.97869 | -82.52852 | 25 ft | 136 kts | 183° |
| 2026-04-30 22:45 | 27.95404 | -82.52945 | 1048 ft | 191 kts | 191° |
| 2026-04-30 22:46 | 27.93043 | -82.54469 | 2441 ft | 209 kts | 216° |
| 2026-04-30 22:47 | 27.93658 | -82.60264 | 5012 ft | 260 kts | 336° |
| 2026-04-30 22:47 | 27.97086 | -82.61540 | 6906 ft | 262 kts | 340° |
| 2026-04-30 22:48 | 28.00569 | -82.62837 | 8628 ft | 269 kts | 338° |
| 2026-04-30 22:49 | 28.05966 | -82.64919 | 10351 ft | 280 kts | 337° |
| 2026-04-30 22:49 | 28.12156 | -82.67317 | 11466 ft | 339 kts | 338° |
| 2026-04-30 22:50 | 28.21679 | -82.70978 | 12916 ft | 369 kts | 338° |
| 2026-04-30 22:51 | 28.26564 | -82.72855 | 13638 ft | 372 kts | 337° |
| 2026-04-30 22:51 | 28.31521 | -82.74770 | 14402 ft | 376 kts | 337° |
| 2026-04-30 22:52 | 28.33998 | -82.75729 | 14763 ft | 378 kts | 337° |
| 2026-04-30 22:52 | 28.38990 | -82.77651 | 15484 ft | 380 kts | 338° |
| 2026-04-30 22:53 | 28.44185 | -82.79089 | 16214 ft | 388 kts | 345° |
| 2026-04-30 22:53 | 28.49562 | -82.79972 | 16909 ft | 390 kts | 347° |
| 2026-04-30 22:53 | 28.52272 | -82.80370 | 17286 ft | 395 kts | 347° |
| 2026-04-30 22:54 | 28.57720 | -82.81197 | 17985 ft | 397 kts | 347° |
| 2026-04-30 22:55 | 28.66032 | -82.82647 | 19055 ft | 405 kts | 346° |
| 2026-04-30 22:55 | 28.71650 | -82.83676 | 19751 ft | 411 kts | 345° |
| 2026-04-30 22:56 | 28.77350 | -82.84716 | 20442 ft | 419 kts | 345° |
| 2026-04-30 22:56 | 28.86106 | -82.86307 | 21475 ft | 431 kts | 345° |
| 2026-04-30 22:57 | 28.92059 | -82.87387 | 22156 ft | 434 kts | 345° |
| 2026-04-30 22:57 | 28.98078 | -82.88480 | 22874 ft | 438 kts | 345° |
| 2026-04-30 22:58 | 29.04125 | -82.89575 | 23622 ft | 446 kts | 345° |
| 2026-04-30 22:59 | 29.13369 | -82.91257 | 24764 ft | 450 kts | 345° |
| 2026-04-30 22:59 | 29.22722 | -82.92961 | 25912 ft | 456 kts | 345° |